Terminal Aerodrome Forecast
Issued by NWS Rapid City, SD

Home | Current Version | Previous Version | Graphics & Text | Print | Product List | Glossary On
Versions: 1 2 3 4 5 6 7 8 9 10 11 12 13 14 15 16 17 18 19 20 21 22 23
472
FTUS43 KUNR 270451 CCA
TAFRAP
TAF COR
KRAP 270451Z 2705/2724 VRB04KT 3SM BR SCT200
      TEMPO 2705/2709 1/4SM FG
     FM271400 18004KT P6SM FEW008 SCT200
     FM271700 15008KT P6SM SCT200=

USA.gov is the U.S. government's official web portal to all federal, state and local government web resources and services.